Terminal Aerodrome Forecast
Issued by NWS Wilmington, OH

Current Version | Previous Version | Graphics & Text | Print | Product List | Glossary On
Versions: 1 2 3 4 5 6 7 8 9 10 11 12 13 14 15 16 17 18 19 20 21 22 23
000
FTUS41 KILN 010813 AAA
TAFDAY
TAF AMD
KDAY 010813Z 0108/0206 20012G22KT P6SM BKN040
      TEMPO 0108/0110 5SM -TSRA OVC015CB
     FM011000 20013G23KT 3SM SHRA BR VCTS OVC025CB
      TEMPO 0110/0112 2SM TSRA OVC008CB
     FM011400 23012G22KT P6SM BKN025
     FM011700 25024G34KT P6SM BKN040
     FM012000 26024G33KT P6SM BKN025=

USA.gov is the U.S. government's official web portal to all federal, state and local government web resources and services.